sensor_id;sensor_type;location;lat;lon;timestamp;temperature;humidity
43338;DHT22;28933;52.492;13.434;2023-04-24T00:01:13;13.80;96.50
43338;DHT22;28933;52.492;13.434;2023-04-24T00:03:40;13.80;96.50
43338;DHT22;28933;52.492;13.434;2023-04-24T00:06:06;13.80;96.60
43338;DHT22;28933;52.492;13.434;2023-04-24T00:08:34;13.80;96.60
43338;DHT22;28933;52.492;13.434;2023-04-24T00:11:00;13.70;96.70
43338;DHT22;28933;52.492;13.434;2023-04-24T00:13:26;13.70;96.80
43338;DHT22;28933;52.492;13.434;2023-04-24T00:15:54;13.70;96.90
43338;DHT22;28933;52.492;13.434;2023-04-24T00:18:19;13.70;96.90
43338;DHT22;28933;52.492;13.434;2023-04-24T00:20:45;13.70;97.00
43338;DHT22;28933;52.492;13.434;2023-04-24T00:23:12;13.70;97.00
43338;DHT22;28933;52.492;13.434;2023-04-24T00:25:38;13.70;97.10
43338;DHT22;28933;52.492;13.434;2023-04-24T00:28:03;13.60;97.20
43338;DHT22;28933;52.492;13.434;2023-04-24T00:30:29;13.60;97.20
43338;DHT22;28933;52.492;13.434;2023-04-24T00:32:55;13.60;97.30
43338;DHT22;28933;52.492;13.434;2023-04-24T00:35:20;13.60;97.40
43338;DHT22;28933;52.492;13.434;2023-04-24T00:37:46;13.60;97.40
43338;DHT22;28933;52.492;13.434;2023-04-24T00:40:12;13.60;97.50
43338;DHT22;28933;52.492;13.434;2023-04-24T00:42:38;13.50;97.50
43338;DHT22;28933;52.492;13.434;2023-04-24T00:45:05;13.50;97.60
43338;DHT22;28933;52.492;13.434;2023-04-24T00:47:32;13.50;97.60
43338;DHT22;28933;52.492;13.434;2023-04-24T00:49:58;13.50;97.70
43338;DHT22;28933;52.492;13.434;2023-04-24T00:52:25;13.50;97.80
43338;DHT22;28933;52.492;13.434;2023-04-24T00:54:51;13.40;97.90
43338;DHT22;28933;52.492;13.434;2023-04-24T00:57:17;13.40;98.00
43338;DHT22;28933;52.492;13.434;2023-04-24T00:59:43;13.40;98.00
43338;DHT22;28933;52.492;13.434;2023-04-24T01:02:10;13.40;98.10
43338;DHT22;28933;52.492;13.434;2023-04-24T01:04:36;13.40;98.20
43338;DHT22;28933;52.492;13.434;2023-04-24T01:07:02;13.40;98.20
43338;DHT22;28933;52.492;13.434;2023-04-24T01:09:28;13.40;98.30
43338;DHT22;28933;52.492;13.434;2023-04-24T01:11:54;13.40;98.30
43338;DHT22;28933;52.492;13.434;2023-04-24T01:14:20;13.30;98.40
43338;DHT22;28933;52.492;13.434;2023-04-24T01:16:46;13.40;98.50
43338;DHT22;28933;52.492;13.434;2023-04-24T01:19:13;13.40;98.60
43338;DHT22;28933;52.492;13.434;2023-04-24T01:21:40;13.30;98.60
43338;DHT22;28933;52.492;13.434;2023-04-24T01:24:07;13.30;98.70
43338;DHT22;28933;52.492;13.434;2023-04-24T01:26:33;13.30;98.70
43338;DHT22;28933;52.492;13.434;2023-04-24T01:28:58;13.30;98.80
43338;DHT22;28933;52.492;13.434;2023-04-24T01:31:24;13.30;98.90
43338;DHT22;28933;52.492;13.434;2023-04-24T01:33:51;13.30;98.90
43338;DHT22;28933;52.492;13.434;2023-04-24T01:36:17;13.30;99.10
43338;DHT22;28933;52.492;13.434;2023-04-24T01:38:43;13.30;99.10
43338;DHT22;28933;52.492;13.434;2023-04-24T01:41:09;13.20;99.20
43338;DHT22;28933;52.492;13.434;2023-04-24T01:43:35;13.20;99.20
43338;DHT22;28933;52.492;13.434;2023-04-24T01:46:01;13.20;99.30
43338;DHT22;28933;52.492;13.434;2023-04-24T01:48:27;13.20;99.40
43338;DHT22;28933;52.492;13.434;2023-04-24T01:50:52;13.20;99.40
43338;DHT22;28933;52.492;13.434;2023-04-24T01:53:18;13.20;99.50
43338;DHT22;28933;52.492;13.434;2023-04-24T01:55:44;13.20;99.60
43338;DHT22;28933;52.492;13.434;2023-04-24T01:58:09;13.20;99.60
43338;DHT22;28933;52.492;13.434;2023-04-24T02:00:35;13.30;99.70
43338;DHT22;28933;52.492;13.434;2023-04-24T02:03:09;13.20;99.70
43338;DHT22;28933;52.492;13.434;2023-04-24T02:05:35;13.30;99.90
43338;DHT22;28933;52.492;13.434;2023-04-24T02:08:00;13.30;99.80
43338;DHT22;28933;52.492;13.434;2023-04-24T02:10:26;13.30;99.90
43338;DHT22;28933;52.492;13.434;2023-04-24T02:12:51;13.30;99.90
43338;DHT22;28933;52.492;13.434;2023-04-24T02:15:17;13.30;99.90
43338;DHT22;28933;52.492;13.434;2023-04-24T02:17:43;13.30;99.90
43338;DHT22;28933;52.492;13.434;2023-04-24T02:20:08;13.30;99.90
43338;DHT22;28933;52.492;13.434;2023-04-24T02:22:34;13.40;99.90
43338;DHT22;28933;52.492;13.434;2023-04-24T02:25:00;13.40;99.90
43338;DHT22;28933;52.492;13.434;2023-04-24T02:27:26;13.40;99.90
43338;DHT22;28933;52.492;13.434;2023-04-24T02:29:54;13.40;99.90
43338;DHT22;28933;52.492;13.434;2023-04-24T02:32:20;13.40;99.90
43338;DHT22;28933;52.492;13.434;2023-04-24T02:34:46;13.40;99.90
43338;DHT22;28933;52.492;13.434;2023-04-24T02:37:11;13.50;99.90
43338;DHT22;28933;52.492;13.434;2023-04-24T02:39:37;13.50;99.90
43338;DHT22;28933;52.492;13.434;2023-04-24T02:42:03;13.50;99.90
43338;DHT22;28933;52.492;13.434;2023-04-24T02:44:28;13.50;99.90
43338;DHT22;28933;52.492;13.434;2023-04-24T02:46:54;13.50;99.90
43338;DHT22;28933;52.492;13.434;2023-04-24T02:49:19;13.60;99.90
43338;DHT22;28933;52.492;13.434;2023-04-24T02:51:45;13.60;99.90
43338;DHT22;28933;52.492;13.434;2023-04-24T02:54:11;13.60;99.90
43338;DHT22;28933;52.492;13.434;2023-04-24T02:56:36;13.60;99.90
43338;DHT22;28933;52.492;13.434;2023-04-24T02:59:02;13.60;99.90
43338;DHT22;28933;52.492;13.434;2023-04-24T03:01:28;13.60;99.90
43338;DHT22;28933;52.492;13.434;2023-04-24T03:03:53;13.60;99.90
43338;DHT22;28933;52.492;13.434;2023-04-24T03:06:19;13.60;99.90
43338;DHT22;28933;52.492;13.434;2023-04-24T03:08:46;13.70;99.90
43338;DHT22;28933;52.492;13.434;2023-04-24T03:11:12;13.70;99.90
43338;DHT22;28933;52.492;13.434;2023-04-24T03:13:37;13.70;99.90
43338;DHT22;28933;52.492;13.434;2023-04-24T03:16:03;13.70;99.90
43338;DHT22;28933;52.492;13.434;2023-04-24T03:18:29;13.70;99.90
43338;DHT22;28933;52.492;13.434;2023-04-24T03:20:54;13.80;99.90
43338;DHT22;28933;52.492;13.434;2023-04-24T03:23:20;13.80;99.90
43338;DHT22;28933;52.492;13.434;2023-04-24T03:25:46;13.80;99.90
43338;DHT22;28933;52.492;13.434;2023-04-24T03:28:13;13.80;99.90
43338;DHT22;28933;52.492;13.434;2023-04-24T03:30:39;13.90;99.90
43338;DHT22;28933;52.492;13.434;2023-04-24T03:33:04;13.90;99.90
43338;DHT22;28933;52.492;13.434;2023-04-24T03:35:30;13.90;99.90
43338;DHT22;28933;52.492;13.434;2023-04-24T03:37:55;13.90;99.90
43338;DHT22;28933;52.492;13.434;2023-04-24T03:40:21;14.00;99.90
43338;DHT22;28933;52.492;13.434;2023-04-24T03:42:47;14.00;99.90
43338;DHT22;28933;52.492;13.434;2023-04-24T03:45:12;14.10;99.90
43338;DHT22;28933;52.492;13.434;2023-04-24T03:47:38;14.10;99.90
43338;DHT22;28933;52.492;13.434;2023-04-24T03:50:04;14.10;99.90
43338;DHT22;28933;52.492;13.434;2023-04-24T03:52:30;14.00;99.90
43338;DHT22;28933;52.492;13.434;2023-04-24T03:54:55;14.10;99.90
43338;DHT22;28933;52.492;13.434;2023-04-24T03:57:21;14.10;99.90
43338;DHT22;28933;52.492;13.434;2023-04-24T03:59:46;14.10;99.90
43338;DHT22;28933;52.492;13.434;2023-04-24T04:02:12;14.20;99.90
43338;DHT22;28933;52.492;13.434;2023-04-24T04:04:37;14.10;99.90
43338;DHT22;28933;52.492;13.434;2023-04-24T04:07:03;14.20;99.90
43338;DHT22;28933;52.492;13.434;2023-04-24T04:09:30;14.20;99.90
43338;DHT22;28933;52.492;13.434;2023-04-24T04:11:56;14.20;99.90
43338;DHT22;28933;52.492;13.434;2023-04-24T04:14:22;14.20;99.90
43338;DHT22;28933;52.492;13.434;2023-04-24T04:16:48;14.30;99.90
43338;DHT22;28933;52.492;13.434;2023-04-24T04:19:14;14.20;99.90
43338;DHT22;28933;52.492;13.434;2023-04-24T04:21:39;14.20;99.90
43338;DHT22;28933;52.492;13.434;2023-04-24T04:24:05;14.20;99.90
43338;DHT22;28933;52.492;13.434;2023-04-24T04:26:32;14.30;99.90
43338;DHT22;28933;52.492;13.434;2023-04-24T04:28:59;14.30;99.90
43338;DHT22;28933;52.492;13.434;2023-04-24T04:31:26;14.30;99.90
43338;DHT22;28933;52.492;13.434;2023-04-24T04:33:51;14.30;99.90
43338;DHT22;28933;52.492;13.434;2023-04-24T04:36:17;14.30;99.90
43338;DHT22;28933;52.492;13.434;2023-04-24T04:38:43;14.30;99.90
43338;DHT22;28933;52.492;13.434;2023-04-24T04:41:10;14.30;99.90
43338;DHT22;28933;52.492;13.434;2023-04-24T04:43:36;14.30;99.90
43338;DHT22;28933;52.492;13.434;2023-04-24T04:46:02;14.30;99.90
43338;DHT22;28933;52.492;13.434;2023-04-24T04:48:29;14.30;99.90
43338;DHT22;28933;52.492;13.434;2023-04-24T04:50:56;14.30;99.90
43338;DHT22;28933;52.492;13.434;2023-04-24T04:53:22;14.30;99.90
43338;DHT22;28933;52.492;13.434;2023-04-24T04:55:48;14.40;99.90
43338;DHT22;28933;52.492;13.434;2023-04-24T04:58:13;14.40;99.90
43338;DHT22;28933;52.492;13.434;2023-04-24T05:00:39;14.50;99.90
43338;DHT22;28933;52.492;13.434;2023-04-24T05:03:05;14.40;99.90
43338;DHT22;28933;52.492;13.434;2023-04-24T05:05:31;14.50;99.90
43338;DHT22;28933;52.492;13.434;2023-04-24T05:07:57;14.50;99.90
43338;DHT22;28933;52.492;13.434;2023-04-24T05:10:22;14.50;99.90
43338;DHT22;28933;52.492;13.434;2023-04-24T05:12:48;14.50;99.90
43338;DHT22;28933;52.492;13.434;2023-04-24T05:15:14;14.60;99.90
43338;DHT22;28933;52.492;13.434;2023-04-24T05:17:40;14.60;99.90
43338;DHT22;28933;52.492;13.434;2023-04-24T05:20:06;14.70;99.90
43338;DHT22;28933;52.492;13.434;2023-04-24T05:22:32;14.70;99.90
43338;DHT22;28933;52.492;13.434;2023-04-24T05:24:58;14.70;99.90
43338;DHT22;28933;52.492;13.434;2023-04-24T05:27:24;14.70;99.90
43338;DHT22;28933;52.492;13.434;2023-04-24T05:29:49;14.80;99.90
43338;DHT22;28933;52.492;13.434;2023-04-24T05:32:15;14.80;99.90
43338;DHT22;28933;52.492;13.434;2023-04-24T05:34:41;14.90;99.90
43338;DHT22;28933;52.492;13.434;2023-04-24T05:37:06;14.80;99.90
43338;DHT22;28933;52.492;13.434;2023-04-24T05:39:35;14.90;99.90
43338;DHT22;28933;52.492;13.434;2023-04-24T05:42:01;15.00;99.90
43338;DHT22;28933;52.492;13.434;2023-04-24T05:44:27;15.00;99.90
43338;DHT22;28933;52.492;13.434;2023-04-24T05:46:52;15.00;99.90
43338;DHT22;28933;52.492;13.434;2023-04-24T05:49:18;15.10;99.90
43338;DHT22;28933;52.492;13.434;2023-04-24T05:51:44;15.10;99.90
43338;DHT22;28933;52.492;13.434;2023-04-24T05:54:10;15.20;99.90
43338;DHT22;28933;52.492;13.434;2023-04-24T05:56:37;15.20;99.90
43338;DHT22;28933;52.492;13.434;2023-04-24T05:59:03;15.20;99.80
43338;DHT22;28933;52.492;13.434;2023-04-24T06:01:29;15.20;99.80
43338;DHT22;28933;52.492;13.434;2023-04-24T06:03:55;15.20;99.70
43338;DHT22;28933;52.492;13.434;2023-04-24T06:06:20;15.20;99.60
43338;DHT22;28933;52.492;13.434;2023-04-24T06:08:46;15.30;99.80
43338;DHT22;28933;52.492;13.434;2023-04-24T06:11:11;15.30;99.50
43338;DHT22;28933;52.492;13.434;2023-04-24T06:13:37;15.30;99.40
43338;DHT22;28933;52.492;13.434;2023-04-24T06:16:04;15.40;99.40
43338;DHT22;28933;52.492;13.434;2023-04-24T06:18:30;15.40;99.30
43338;DHT22;28933;52.492;13.434;2023-04-24T06:20:55;15.50;99.30
43338;DHT22;28933;52.492;13.434;2023-04-24T06:23:21;15.50;99.20
43338;DHT22;28933;52.492;13.434;2023-04-24T06:25:47;15.50;99.10
43338;DHT22;28933;52.492;13.434;2023-04-24T06:28:12;15.50;98.90
43338;DHT22;28933;52.492;13.434;2023-04-24T06:30:38;15.60;98.80
43338;DHT22;28933;52.492;13.434;2023-04-24T06:33:03;15.60;98.70
43338;DHT22;28933;52.492;13.434;2023-04-24T06:35:29;15.60;98.60
43338;DHT22;28933;52.492;13.434;2023-04-24T06:37:55;15.60;98.50
43338;DHT22;28933;52.492;13.434;2023-04-24T06:40:22;15.60;98.40
43338;DHT22;28933;52.492;13.434;2023-04-24T06:42:47;15.60;98.40
43338;DHT22;28933;52.492;13.434;2023-04-24T06:45:13;15.60;98.40
43338;DHT22;28933;52.492;13.434;2023-04-24T06:47:39;15.70;98.40
43338;DHT22;28933;52.492;13.434;2023-04-24T06:50:05;15.70;98.30
43338;DHT22;28933;52.492;13.434;2023-04-24T06:52:30;15.70;98.20
43338;DHT22;28933;52.492;13.434;2023-04-24T06:55:02;15.80;98.20
43338;DHT22;28933;52.492;13.434;2023-04-24T06:57:29;15.90;98.10
43338;DHT22;28933;52.492;13.434;2023-04-24T06:59:55;16.00;98.00
43338;DHT22;28933;52.492;13.434;2023-04-24T07:02:20;16.00;97.90
43338;DHT22;28933;52.492;13.434;2023-04-24T07:04:46;16.10;97.80
43338;DHT22;28933;52.492;13.434;2023-04-24T07:07:13;16.20;97.70
43338;DHT22;28933;52.492;13.434;2023-04-24T07:09:40;16.30;97.50
43338;DHT22;28933;52.492;13.434;2023-04-24T07:12:08;16.40;97.30
43338;DHT22;28933;52.492;13.434;2023-04-24T07:14:33;16.40;97.10
43338;DHT22;28933;52.492;13.434;2023-04-24T07:16:59;16.50;97.00
43338;DHT22;28933;52.492;13.434;2023-04-24T07:19:25;16.60;96.80
43338;DHT22;28933;52.492;13.434;2023-04-24T07:21:51;16.60;96.60
43338;DHT22;28933;52.492;13.434;2023-04-24T07:24:18;16.70;96.40
43338;DHT22;28933;52.492;13.434;2023-04-24T07:26:43;16.70;96.20
43338;DHT22;28933;52.492;13.434;2023-04-24T07:29:09;16.70;96.10
43338;DHT22;28933;52.492;13.434;2023-04-24T07:31:35;16.80;95.90
43338;DHT22;28933;52.492;13.434;2023-04-24T07:34:01;16.90;95.70
43338;DHT22;28933;52.492;13.434;2023-04-24T07:36:26;17.00;95.50
43338;DHT22;28933;52.492;13.434;2023-04-24T07:38:54;17.00;95.20
43338;DHT22;28933;52.492;13.434;2023-04-24T07:41:20;17.10;95.10
43338;DHT22;28933;52.492;13.434;2023-04-24T07:43:46;17.20;94.90
43338;DHT22;28933;52.492;13.434;2023-04-24T07:46:12;17.30;94.70
43338;DHT22;28933;52.492;13.434;2023-04-24T07:48:37;17.30;94.40
43338;DHT22;28933;52.492;13.434;2023-04-24T07:51:03;17.30;94.10
43338;DHT22;28933;52.492;13.434;2023-04-24T07:53:29;17.30;93.90
43338;DHT22;28933;52.492;13.434;2023-04-24T07:55:56;17.30;93.80
43338;DHT22;28933;52.492;13.434;2023-04-24T07:58:21;17.30;93.50
43338;DHT22;28933;52.492;13.434;2023-04-24T08:00:47;17.30;93.20
43338;DHT22;28933;52.492;13.434;2023-04-24T08:03:13;17.30;93.10
43338;DHT22;28933;52.492;13.434;2023-04-24T08:05:39;17.40;93.00
43338;DHT22;28933;52.492;13.434;2023-04-24T08:08:04;17.40;93.00
43338;DHT22;28933;52.492;13.434;2023-04-24T08:10:30;17.40;92.50
43338;DHT22;28933;52.492;13.434;2023-04-24T08:12:55;17.40;92.40
43338;DHT22;28933;52.492;13.434;2023-04-24T08:15:21;17.50;92.00
43338;DHT22;28933;52.492;13.434;2023-04-24T08:17:47;17.50;91.60
43338;DHT22;28933;52.492;13.434;2023-04-24T08:20:13;17.50;91.40
43338;DHT22;28933;52.492;13.434;2023-04-24T08:22:42;17.60;91.30
43338;DHT22;28933;52.492;13.434;2023-04-24T08:25:09;17.60;91.30
43338;DHT22;28933;52.492;13.434;2023-04-24T08:27:34;17.70;91.60
43338;DHT22;28933;52.492;13.434;2023-04-24T08:30:03;17.70;91.90
43338;DHT22;28933;52.492;13.434;2023-04-24T08:32:29;17.80;92.20
43338;DHT22;28933;52.492;13.434;2023-04-24T08:34:58;17.90;92.30
43338;DHT22;28933;52.492;13.434;2023-04-24T08:37:25;18.00;92.20
43338;DHT22;28933;52.492;13.434;2023-04-24T08:39:51;18.20;92.10
43338;DHT22;28933;52.492;13.434;2023-04-24T08:42:18;18.30;92.10
43338;DHT22;28933;52.492;13.434;2023-04-24T08:44:44;18.40;91.90
43338;DHT22;28933;52.492;13.434;2023-04-24T08:47:10;18.50;91.70
43338;DHT22;28933;52.492;13.434;2023-04-24T08:49:37;18.60;91.50
43338;DHT22;28933;52.492;13.434;2023-04-24T08:52:05;18.70;91.50
43338;DHT22;28933;52.492;13.434;2023-04-24T08:54:33;18.90;91.40
43338;DHT22;28933;52.492;13.434;2023-04-24T08:57:00;19.00;91.00
43338;DHT22;28933;52.492;13.434;2023-04-24T08:59:30;19.10;90.90
43338;DHT22;28933;52.492;13.434;2023-04-24T09:01:56;19.20;90.40
43338;DHT22;28933;52.492;13.434;2023-04-24T09:04:23;19.30;90.00
43338;DHT22;28933;52.492;13.434;2023-04-24T09:06:51;19.30;89.20
43338;DHT22;28933;52.492;13.434;2023-04-24T09:09:17;19.30;89.00
43338;DHT22;28933;52.492;13.434;2023-04-24T09:11:44;19.40;88.90
43338;DHT22;28933;52.492;13.434;2023-04-24T09:14:10;19.50;89.00
43338;DHT22;28933;52.492;13.434;2023-04-24T09:16:36;19.60;88.90
43338;DHT22;28933;52.492;13.434;2023-04-24T09:19:02;19.60;88.60
43338;DHT22;28933;52.492;13.434;2023-04-24T09:21:32;19.70;89.00
43338;DHT22;28933;52.492;13.434;2023-04-24T09:24:00;19.80;88.20
43338;DHT22;28933;52.492;13.434;2023-04-24T09:26:28;19.80;88.00
43338;DHT22;28933;52.492;13.434;2023-04-24T09:28:54;19.80;88.00
43338;DHT22;28933;52.492;13.434;2023-04-24T09:31:20;19.80;87.80
43338;DHT22;28933;52.492;13.434;2023-04-24T09:34:04;19.90;87.70
43338;DHT22;28933;52.492;13.434;2023-04-24T09:36:35;20.00;87.00
43338;DHT22;28933;52.492;13.434;2023-04-24T09:39:04;20.00;86.60
43338;DHT22;28933;52.492;13.434;2023-04-24T09:41:32;20.00;86.50
43338;DHT22;28933;52.492;13.434;2023-04-24T09:44:23;20.00;87.10
43338;DHT22;28933;52.492;13.434;2023-04-24T09:46:53;20.00;86.80
43338;DHT22;28933;52.492;13.434;2023-04-24T09:52:09;20.10;87.00
43338;DHT22;28933;52.492;13.434;2023-04-24T09:54:35;20.10;86.90
43338;DHT22;28933;52.492;13.434;2023-04-24T09:57:06;20.10;87.00
43338;DHT22;28933;52.492;13.434;2023-04-24T09:59:32;20.20;86.90
43338;DHT22;28933;52.492;13.434;2023-04-24T10:01:59;20.20;86.60
43338;DHT22;28933;52.492;13.434;2023-04-24T10:04:27;20.30;86.40
43338;DHT22;28933;52.492;13.434;2023-04-24T10:06:55;20.40;86.10
43338;DHT22;28933;52.492;13.434;2023-04-24T10:09:22;20.40;85.70
43338;DHT22;28933;52.492;13.434;2023-04-24T10:11:50;20.50;85.70
43338;DHT22;28933;52.492;13.434;2023-04-24T10:14:18;20.60;85.60
43338;DHT22;28933;52.492;13.434;2023-04-24T10:16:44;20.60;85.50
43338;DHT22;28933;52.492;13.434;2023-04-24T10:19:13;20.60;84.90
43338;DHT22;28933;52.492;13.434;2023-04-24T10:21:40;20.60;84.80
43338;DHT22;28933;52.492;13.434;2023-04-24T10:24:17;20.70;84.70
43338;DHT22;28933;52.492;13.434;2023-04-24T10:26:44;20.80;84.70
43338;DHT22;28933;52.492;13.434;2023-04-24T10:29:14;20.90;84.20
43338;DHT22;28933;52.492;13.434;2023-04-24T10:31:41;21.00;83.60
43338;DHT22;28933;52.492;13.434;2023-04-24T10:34:09;21.10;83.00
43338;DHT22;28933;52.492;13.434;2023-04-24T10:36:36;21.10;82.60
43338;DHT22;28933;52.492;13.434;2023-04-24T10:39:07;21.10;82.50
43338;DHT22;28933;52.492;13.434;2023-04-24T10:41:37;21.10;82.30
43338;DHT22;28933;52.492;13.434;2023-04-24T10:44:12;21.10;82.50
43338;DHT22;28933;52.492;13.434;2023-04-24T10:46:44;21.00;82.00
43338;DHT22;28933;52.492;13.434;2023-04-24T10:49:10;20.90;81.40
43338;DHT22;28933;52.492;13.434;2023-04-24T10:51:52;20.90;80.90
43338;DHT22;28933;52.492;13.434;2023-04-24T10:54:41;20.80;80.60
43338;DHT22;28933;52.492;13.434;2023-04-24T10:59:51;20.60;80.50
43338;DHT22;28933;52.492;13.434;2023-04-24T11:02:17;20.50;81.00
43338;DHT22;28933;52.492;13.434;2023-04-24T11:04:44;20.50;81.20
43338;DHT22;28933;52.492;13.434;2023-04-24T11:07:10;20.50;81.40
43338;DHT22;28933;52.492;13.434;2023-04-24T11:09:37;20.40;81.40
43338;DHT22;28933;52.492;13.434;2023-04-24T11:12:12;20.40;81.60
43338;DHT22;28933;52.492;13.434;2023-04-24T11:17:35;20.60;81.80
43338;DHT22;28933;52.492;13.434;2023-04-24T11:20:10;20.70;81.20
43338;DHT22;28933;52.492;13.434;2023-04-24T11:22:38;20.80;80.90
43338;DHT22;28933;52.492;13.434;2023-04-24T11:25:06;20.80;80.60
43338;DHT22;28933;52.492;13.434;2023-04-24T11:27:42;20.90;80.50
43338;DHT22;28933;52.492;13.434;2023-04-24T11:30:09;20.80;80.70
43338;DHT22;28933;52.492;13.434;2023-04-24T11:32:37;20.80;80.60
43338;DHT22;28933;52.492;13.434;2023-04-24T11:35:22;20.70;80.60
43338;DHT22;28933;52.492;13.434;2023-04-24T11:37:52;20.60;80.70
43338;DHT22;28933;52.492;13.434;2023-04-24T11:40:20;20.50;81.20
43338;DHT22;28933;52.492;13.434;2023-04-24T11:42:55;20.20;84.30
43338;DHT22;28933;52.492;13.434;2023-04-24T11:45:25;20.00;86.60
43338;DHT22;28933;52.492;13.434;2023-04-24T11:47:51;19.80;88.70
43338;DHT22;28933;52.492;13.434;2023-04-24T11:50:19;19.70;90.00
43338;DHT22;28933;52.492;13.434;2023-04-24T11:52:47;19.70;90.60
43338;DHT22;28933;52.492;13.434;2023-04-24T11:57:59;19.70;91.20
43338;DHT22;28933;52.492;13.434;2023-04-24T12:00:27;19.70;91.40
43338;DHT22;28933;52.492;13.434;2023-04-24T12:03:08;19.70;91.60
43338;DHT22;28933;52.492;13.434;2023-04-24T12:05:34;19.70;91.70
43338;DHT22;28933;52.492;13.434;2023-04-24T12:08:00;19.70;91.80
43338;DHT22;28933;52.492;13.434;2023-04-24T12:10:29;19.70;91.80
43338;DHT22;28933;52.492;13.434;2023-04-24T12:12:57;19.70;92.10
43338;DHT22;28933;52.492;13.434;2023-04-24T12:15:23;19.70;92.00
43338;DHT22;28933;52.492;13.434;2023-04-24T12:17:53;19.80;91.60
43338;DHT22;28933;52.492;13.434;2023-04-24T12:20:32;19.80;91.40
43338;DHT22;28933;52.492;13.434;2023-04-24T12:23:00;19.80;91.40
43338;DHT22;28933;52.492;13.434;2023-04-24T12:25:28;19.90;91.60
43338;DHT22;28933;52.492;13.434;2023-04-24T12:27:57;19.90;91.40
43338;DHT22;28933;52.492;13.434;2023-04-24T12:30:48;19.90;90.80
43338;DHT22;28933;52.492;13.434;2023-04-24T12:33:20;19.90;90.60
43338;DHT22;28933;52.492;13.434;2023-04-24T12:35:48;19.90;90.30
43338;DHT22;28933;52.492;13.434;2023-04-24T12:38:15;19.90;90.10
43338;DHT22;28933;52.492;13.434;2023-04-24T12:40:42;20.00;89.20
43338;DHT22;28933;52.492;13.434;2023-04-24T12:43:18;20.00;88.00
43338;DHT22;28933;52.492;13.434;2023-04-24T12:45:45;20.00;86.20
43338;DHT22;28933;52.492;13.434;2023-04-24T12:48:11;20.00;85.20
43338;DHT22;28933;52.492;13.434;2023-04-24T12:50:39;20.10;85.10
43338;DHT22;28933;52.492;13.434;2023-04-24T12:53:08;20.20;83.60
43338;DHT22;28933;52.492;13.434;2023-04-24T12:55:34;20.20;82.30
43338;DHT22;28933;52.492;13.434;2023-04-24T12:58:00;20.30;80.60
43338;DHT22;28933;52.492;13.434;2023-04-24T13:00:25;20.30;79.50
43338;DHT22;28933;52.492;13.434;2023-04-24T13:02:51;20.40;78.80
43338;DHT22;28933;52.492;13.434;2023-04-24T13:05:17;20.40;77.70
43338;DHT22;28933;52.492;13.434;2023-04-24T13:07:42;20.50;77.30
43338;DHT22;28933;52.492;13.434;2023-04-24T13:10:08;20.60;76.50
43338;DHT22;28933;52.492;13.434;2023-04-24T13:12:35;20.70;75.90
43338;DHT22;28933;52.492;13.434;2023-04-24T13:15:00;20.90;75.20
43338;DHT22;28933;52.492;13.434;2023-04-24T13:17:26;20.90;73.70
43338;DHT22;28933;52.492;13.434;2023-04-24T13:19:55;21.00;73.00
43338;DHT22;28933;52.492;13.434;2023-04-24T13:22:20;21.20;71.80
43338;DHT22;28933;52.492;13.434;2023-04-24T13:24:47;21.30;71.10
43338;DHT22;28933;52.492;13.434;2023-04-24T13:27:17;21.40;70.60
43338;DHT22;28933;52.492;13.434;2023-04-24T13:29:43;21.50;68.90
43338;DHT22;28933;52.492;13.434;2023-04-24T13:32:09;21.50;68.30
43338;DHT22;28933;52.492;13.434;2023-04-24T13:34:35;21.60;67.60
43338;DHT22;28933;52.492;13.434;2023-04-24T13:37:01;21.70;67.50
43338;DHT22;28933;52.492;13.434;2023-04-24T13:39:26;21.70;66.60
43338;DHT22;28933;52.492;13.434;2023-04-24T13:41:52;21.70;65.40
43338;DHT22;28933;52.492;13.434;2023-04-24T13:44:19;21.70;65.10
43338;DHT22;28933;52.492;13.434;2023-04-24T13:46:51;21.80;65.10
43338;DHT22;28933;52.492;13.434;2023-04-24T13:49:18;21.70;64.20
43338;DHT22;28933;52.492;13.434;2023-04-24T13:51:44;21.80;63.50
43338;DHT22;28933;52.492;13.434;2023-04-24T13:54:10;21.90;63.80
43338;DHT22;28933;52.492;13.434;2023-04-24T13:56:36;21.90;63.30
43338;DHT22;28933;52.492;13.434;2023-04-24T13:59:02;21.80;63.20
43338;DHT22;28933;52.492;13.434;2023-04-24T14:01:28;21.80;62.80
43338;DHT22;28933;52.492;13.434;2023-04-24T14:03:54;21.80;63.00
43338;DHT22;28933;52.492;13.434;2023-04-24T14:06:21;21.80;62.10
43338;DHT22;28933;52.492;13.434;2023-04-24T14:08:47;21.80;61.80
43338;DHT22;28933;52.492;13.434;2023-04-24T14:11:13;21.90;61.30
43338;DHT22;28933;52.492;13.434;2023-04-24T14:13:40;21.90;61.40
43338;DHT22;28933;52.492;13.434;2023-04-24T14:16:07;21.90;61.80
43338;DHT22;28933;52.492;13.434;2023-04-24T14:18:33;22.00;61.20
43338;DHT22;28933;52.492;13.434;2023-04-24T14:20:59;21.90;61.70
43338;DHT22;28933;52.492;13.434;2023-04-24T14:23:26;21.80;61.30
43338;DHT22;28933;52.492;13.434;2023-04-24T14:25:52;21.60;61.20
43338;DHT22;28933;52.492;13.434;2023-04-24T14:28:19;21.50;60.90
43338;DHT22;28933;52.492;13.434;2023-04-24T14:30:45;21.40;60.50
43338;DHT22;28933;52.492;13.434;2023-04-24T14:33:12;21.30;60.50
43338;DHT22;28933;52.492;13.434;2023-04-24T14:35:38;21.30;60.70
43338;DHT22;28933;52.492;13.434;2023-04-24T14:38:05;21.40;61.60
43338;DHT22;28933;52.492;13.434;2023-04-24T14:40:31;21.50;60.30
43338;DHT22;28933;52.492;13.434;2023-04-24T14:42:57;21.50;59.90
43338;DHT22;28933;52.492;13.434;2023-04-24T14:45:24;21.40;59.30
43338;DHT22;28933;52.492;13.434;2023-04-24T14:47:49;21.30;58.80
43338;DHT22;28933;52.492;13.434;2023-04-24T14:50:15;21.20;58.80
43338;DHT22;28933;52.492;13.434;2023-04-24T14:52:41;21.20;58.90
43338;DHT22;28933;52.492;13.434;2023-04-24T14:55:06;21.30;59.10
43338;DHT22;28933;52.492;13.434;2023-04-24T14:57:33;21.40;59.40
43338;DHT22;28933;52.492;13.434;2023-04-24T14:59:59;21.50;59.40
43338;DHT22;28933;52.492;13.434;2023-04-24T15:02:25;21.60;59.60
43338;DHT22;28933;52.492;13.434;2023-04-24T15:04:51;21.50;59.20
43338;DHT22;28933;52.492;13.434;2023-04-24T15:07:16;21.40;59.40
43338;DHT22;28933;52.492;13.434;2023-04-24T15:09:42;21.40;59.00
43338;DHT22;28933;52.492;13.434;2023-04-24T15:12:08;21.30;58.90
43338;DHT22;28933;52.492;13.434;2023-04-24T15:14:34;21.20;59.00
43338;DHT22;28933;52.492;13.434;2023-04-24T15:16:59;21.10;59.20
43338;DHT22;28933;52.492;13.434;2023-04-24T15:19:25;21.10;59.30
43338;DHT22;28933;52.492;13.434;2023-04-24T15:21:50;21.10;59.40
43338;DHT22;28933;52.492;13.434;2023-04-24T15:24:16;21.20;59.40